sensor_id;sensor_type;location;lat;lon;timestamp;temperature;humidity
17092;DHT22;8661;45.700;4.880;2023-05-07T00:00:37;17.30;99.90
17092;DHT22;8661;45.700;4.880;2023-05-07T00:03:06;17.30;99.90
17092;DHT22;8661;45.700;4.880;2023-05-07T00:05:33;17.20;99.90
17092;DHT22;8661;45.700;4.880;2023-05-07T00:08:00;17.20;99.90
17092;DHT22;8661;45.700;4.880;2023-05-07T00:10:27;17.20;99.90
17092;DHT22;8661;45.700;4.880;2023-05-07T00:12:54;17.20;99.90
17092;DHT22;8661;45.700;4.880;2023-05-07T00:15:22;17.20;99.90
17092;DHT22;8661;45.700;4.880;2023-05-07T00:17:49;17.20;99.90
17092;DHT22;8661;45.700;4.880;2023-05-07T00:20:16;17.20;99.90
17092;DHT22;8661;45.700;4.880;2023-05-07T00:22:43;17.20;99.90
17092;DHT22;8661;45.700;4.880;2023-05-07T00:25:10;17.20;99.90
17092;DHT22;8661;45.700;4.880;2023-05-07T00:27:37;17.20;99.90
17092;DHT22;8661;45.700;4.880;2023-05-07T00:30:05;17.10;99.90
17092;DHT22;8661;45.700;4.880;2023-05-07T00:32:33;17.10;99.90
17092;DHT22;8661;45.700;4.880;2023-05-07T00:35:00;17.20;99.90
17092;DHT22;8661;45.700;4.880;2023-05-07T00:37:27;17.20;99.90
17092;DHT22;8661;45.700;4.880;2023-05-07T00:39:54;17.20;99.90
17092;DHT22;8661;45.700;4.880;2023-05-07T00:42:21;17.20;99.90
17092;DHT22;8661;45.700;4.880;2023-05-07T00:44:48;17.20;99.90
17092;DHT22;8661;45.700;4.880;2023-05-07T00:47:16;17.20;99.90
17092;DHT22;8661;45.700;4.880;2023-05-07T00:49:44;17.20;99.90
17092;DHT22;8661;45.700;4.880;2023-05-07T00:52:14;17.20;99.90
17092;DHT22;8661;45.700;4.880;2023-05-07T00:54:42;17.20;99.90
17092;DHT22;8661;45.700;4.880;2023-05-07T00:57:10;17.20;99.90
17092;DHT22;8661;45.700;4.880;2023-05-07T00:59:37;17.20;99.90
17092;DHT22;8661;45.700;4.880;2023-05-07T01:02:05;17.20;99.90
17092;DHT22;8661;45.700;4.880;2023-05-07T01:04:32;17.30;99.90
17092;DHT22;8661;45.700;4.880;2023-05-07T01:07:01;17.30;99.90
17092;DHT22;8661;45.700;4.880;2023-05-07T01:09:29;17.40;99.90
17092;DHT22;8661;45.700;4.880;2023-05-07T01:11:56;17.50;99.90
17092;DHT22;8661;45.700;4.880;2023-05-07T01:14:24;17.50;99.90
17092;DHT22;8661;45.700;4.880;2023-05-07T01:16:51;17.60;99.90
17092;DHT22;8661;45.700;4.880;2023-05-07T01:19:19;17.70;99.90
17092;DHT22;8661;45.700;4.880;2023-05-07T01:21:48;17.70;99.90
17092;DHT22;8661;45.700;4.880;2023-05-07T01:24:16;17.70;99.90
17092;DHT22;8661;45.700;4.880;2023-05-07T01:26:44;17.70;99.90
17092;DHT22;8661;45.700;4.880;2023-05-07T01:29:11;17.70;99.90
17092;DHT22;8661;45.700;4.880;2023-05-07T01:31:40;17.80;99.90
17092;DHT22;8661;45.700;4.880;2023-05-07T01:34:08;17.80;99.90
17092;DHT22;8661;45.700;4.880;2023-05-07T01:36:37;17.80;99.90
17092;DHT22;8661;45.700;4.880;2023-05-07T01:39:05;17.80;99.90
17092;DHT22;8661;45.700;4.880;2023-05-07T01:41:34;17.70;99.90
17092;DHT22;8661;45.700;4.880;2023-05-07T01:44:01;17.70;99.90
17092;DHT22;8661;45.700;4.880;2023-05-07T01:46:29;17.70;99.90
17092;DHT22;8661;45.700;4.880;2023-05-07T01:48:57;17.80;99.90
17092;DHT22;8661;45.700;4.880;2023-05-07T01:51:24;17.80;99.90
17092;DHT22;8661;45.700;4.880;2023-05-07T01:53:52;17.80;99.90
17092;DHT22;8661;45.700;4.880;2023-05-07T01:56:19;17.80;99.90
17092;DHT22;8661;45.700;4.880;2023-05-07T01:58:48;17.80;99.90
17092;DHT22;8661;45.700;4.880;2023-05-07T02:01:17;17.70;99.90
17092;DHT22;8661;45.700;4.880;2023-05-07T02:03:44;17.70;99.90
17092;DHT22;8661;45.700;4.880;2023-05-07T02:06:11;17.70;99.90
17092;DHT22;8661;45.700;4.880;2023-05-07T02:08:38;17.70;99.90
17092;DHT22;8661;45.700;4.880;2023-05-07T02:11:05;17.70;99.90
17092;DHT22;8661;45.700;4.880;2023-05-07T02:13:33;17.70;99.90
17092;DHT22;8661;45.700;4.880;2023-05-07T02:16:01;17.60;99.90
17092;DHT22;8661;45.700;4.880;2023-05-07T02:18:28;17.60;99.90
17092;DHT22;8661;45.700;4.880;2023-05-07T02:20:55;17.70;99.90
17092;DHT22;8661;45.700;4.880;2023-05-07T02:23:22;17.70;99.90
17092;DHT22;8661;45.700;4.880;2023-05-07T02:25:49;17.70;99.90
17092;DHT22;8661;45.700;4.880;2023-05-07T02:28:16;17.60;99.90
17092;DHT22;8661;45.700;4.880;2023-05-07T02:30:43;17.70;99.90
17092;DHT22;8661;45.700;4.880;2023-05-07T02:33:11;17.70;99.90
17092;DHT22;8661;45.700;4.880;2023-05-07T02:35:39;17.70;99.90
17092;DHT22;8661;45.700;4.880;2023-05-07T02:38:06;17.60;99.90
17092;DHT22;8661;45.700;4.880;2023-05-07T02:40:33;17.50;99.90
17092;DHT22;8661;45.700;4.880;2023-05-07T02:43:04;17.50;99.90
17092;DHT22;8661;45.700;4.880;2023-05-07T02:45:31;17.50;99.90
17092;DHT22;8661;45.700;4.880;2023-05-07T02:47:58;17.40;99.90
17092;DHT22;8661;45.700;4.880;2023-05-07T02:50:26;17.30;99.90
17092;DHT22;8661;45.700;4.880;2023-05-07T02:52:53;17.30;99.90
17092;DHT22;8661;45.700;4.880;2023-05-07T02:55:20;17.20;99.90
17092;DHT22;8661;45.700;4.880;2023-05-07T02:57:47;17.10;99.90
17092;DHT22;8661;45.700;4.880;2023-05-07T03:00:15;17.00;99.90
17092;DHT22;8661;45.700;4.880;2023-05-07T03:02:43;16.90;99.90
17092;DHT22;8661;45.700;4.880;2023-05-07T03:05:10;16.80;99.90
17092;DHT22;8661;45.700;4.880;2023-05-07T03:07:38;16.80;99.90
17092;DHT22;8661;45.700;4.880;2023-05-07T03:10:07;16.80;99.90
17092;DHT22;8661;45.700;4.880;2023-05-07T03:12:35;16.70;99.90
17092;DHT22;8661;45.700;4.880;2023-05-07T03:15:02;16.70;99.90
17092;DHT22;8661;45.700;4.880;2023-05-07T03:17:29;16.60;99.90
17092;DHT22;8661;45.700;4.880;2023-05-07T03:19:56;16.60;99.90
17092;DHT22;8661;45.700;4.880;2023-05-07T03:22:23;16.50;99.90
17092;DHT22;8661;45.700;4.880;2023-05-07T03:24:51;16.50;99.90
17092;DHT22;8661;45.700;4.880;2023-05-07T03:27:18;16.50;99.90
17092;DHT22;8661;45.700;4.880;2023-05-07T03:29:45;16.60;99.90
17092;DHT22;8661;45.700;4.880;2023-05-07T03:32:12;16.60;99.90
17092;DHT22;8661;45.700;4.880;2023-05-07T03:34:39;16.60;99.90
17092;DHT22;8661;45.700;4.880;2023-05-07T03:37:06;16.60;99.90
17092;DHT22;8661;45.700;4.880;2023-05-07T03:39:32;16.60;99.90
17092;DHT22;8661;45.700;4.880;2023-05-07T03:42:01;16.60;99.90
17092;DHT22;8661;45.700;4.880;2023-05-07T03:44:28;16.50;99.90
17092;DHT22;8661;45.700;4.880;2023-05-07T03:46:55;16.60;99.90
17092;DHT22;8661;45.700;4.880;2023-05-07T03:49:21;16.60;99.90
17092;DHT22;8661;45.700;4.880;2023-05-07T03:51:48;16.60;99.90
17092;DHT22;8661;45.700;4.880;2023-05-07T03:54:15;16.60;99.90
17092;DHT22;8661;45.700;4.880;2023-05-07T03:56:42;16.60;99.90
17092;DHT22;8661;45.700;4.880;2023-05-07T03:59:11;16.60;99.90
17092;DHT22;8661;45.700;4.880;2023-05-07T04:01:38;16.60;99.90
17092;DHT22;8661;45.700;4.880;2023-05-07T04:04:05;16.60;99.90
17092;DHT22;8661;45.700;4.880;2023-05-07T04:06:32;16.60;99.90
17092;DHT22;8661;45.700;4.880;2023-05-07T04:08:59;16.60;99.90
17092;DHT22;8661;45.700;4.880;2023-05-07T04:11:26;16.60;99.90
17092;DHT22;8661;45.700;4.880;2023-05-07T04:13:53;16.50;99.90
17092;DHT22;8661;45.700;4.880;2023-05-07T04:16:21;16.50;99.90
17092;DHT22;8661;45.700;4.880;2023-05-07T04:18:48;16.50;99.90
17092;DHT22;8661;45.700;4.880;2023-05-07T04:21:15;16.50;99.90
17092;DHT22;8661;45.700;4.880;2023-05-07T04:23:42;16.50;99.90
17092;DHT22;8661;45.700;4.880;2023-05-07T04:26:09;16.50;99.90
17092;DHT22;8661;45.700;4.880;2023-05-07T04:28:36;16.40;99.90
17092;DHT22;8661;45.700;4.880;2023-05-07T04:31:03;16.50;99.90
17092;DHT22;8661;45.700;4.880;2023-05-07T04:33:31;16.50;99.90
17092;DHT22;8661;45.700;4.880;2023-05-07T04:35:58;16.40;99.90
17092;DHT22;8661;45.700;4.880;2023-05-07T04:38:28;16.40;99.90
17092;DHT22;8661;45.700;4.880;2023-05-07T04:40:55;16.40;99.90
17092;DHT22;8661;45.700;4.880;2023-05-07T04:43:22;16.40;99.90
17092;DHT22;8661;45.700;4.880;2023-05-07T04:45:50;16.40;99.90
17092;DHT22;8661;45.700;4.880;2023-05-07T04:48:17;16.40;99.90
17092;DHT22;8661;45.700;4.880;2023-05-07T04:50:48;16.40;99.90
17092;DHT22;8661;45.700;4.880;2023-05-07T04:53:16;16.40;99.90
17092;DHT22;8661;45.700;4.880;2023-05-07T04:55:43;16.40;99.90
17092;DHT22;8661;45.700;4.880;2023-05-07T04:58:10;16.50;99.90
17092;DHT22;8661;45.700;4.880;2023-05-07T05:00:38;16.50;99.90
17092;DHT22;8661;45.700;4.880;2023-05-07T05:03:05;16.60;99.90
17092;DHT22;8661;45.700;4.880;2023-05-07T05:05:32;16.60;99.90
17092;DHT22;8661;45.700;4.880;2023-05-07T05:08:01;16.60;99.90
17092;DHT22;8661;45.700;4.880;2023-05-07T05:10:28;16.70;99.90
17092;DHT22;8661;45.700;4.880;2023-05-07T05:12:54;16.70;99.90
17092;DHT22;8661;45.700;4.880;2023-05-07T05:15:21;16.70;99.90
17092;DHT22;8661;45.700;4.880;2023-05-07T05:17:48;16.70;99.90
17092;DHT22;8661;45.700;4.880;2023-05-07T05:20:15;16.80;99.90
17092;DHT22;8661;45.700;4.880;2023-05-07T05:22:42;16.80;99.90
17092;DHT22;8661;45.700;4.880;2023-05-07T05:25:10;16.80;99.90
17092;DHT22;8661;45.700;4.880;2023-05-07T05:27:37;16.80;99.90
17092;DHT22;8661;45.700;4.880;2023-05-07T05:30:05;16.90;99.90
17092;DHT22;8661;45.700;4.880;2023-05-07T05:32:32;17.00;99.90
17092;DHT22;8661;45.700;4.880;2023-05-07T05:34:59;17.00;99.90
17092;DHT22;8661;45.700;4.880;2023-05-07T05:37:26;17.10;99.90
17092;DHT22;8661;45.700;4.880;2023-05-07T05:39:53;17.20;99.90
17092;DHT22;8661;45.700;4.880;2023-05-07T05:42:22;17.20;99.90
17092;DHT22;8661;45.700;4.880;2023-05-07T05:44:49;17.30;99.90
17092;DHT22;8661;45.700;4.880;2023-05-07T05:47:16;17.30;99.90
17092;DHT22;8661;45.700;4.880;2023-05-07T05:49:43;17.40;99.90
17092;DHT22;8661;45.700;4.880;2023-05-07T05:52:11;17.40;99.90
17092;DHT22;8661;45.700;4.880;2023-05-07T05:54:38;17.50;99.90
17092;DHT22;8661;45.700;4.880;2023-05-07T05:57:05;17.50;99.90
17092;DHT22;8661;45.700;4.880;2023-05-07T05:59:33;17.60;99.90
17092;DHT22;8661;45.700;4.880;2023-05-07T06:02:00;17.70;99.90
17092;DHT22;8661;45.700;4.880;2023-05-07T06:04:27;17.90;99.90
17092;DHT22;8661;45.700;4.880;2023-05-07T06:06:54;18.10;99.90
17092;DHT22;8661;45.700;4.880;2023-05-07T06:09:22;18.30;99.90
17092;DHT22;8661;45.700;4.880;2023-05-07T06:11:49;18.60;99.90
17092;DHT22;8661;45.700;4.880;2023-05-07T06:14:16;18.80;99.90
17092;DHT22;8661;45.700;4.880;2023-05-07T06:16:44;19.20;99.90
17092;DHT22;8661;45.700;4.880;2023-05-07T06:19:11;19.60;99.90
17092;DHT22;8661;45.700;4.880;2023-05-07T06:21:39;20.30;99.90
17092;DHT22;8661;45.700;4.880;2023-05-07T06:24:06;20.90;99.90
17092;DHT22;8661;45.700;4.880;2023-05-07T06:26:33;21.30;99.90
17092;DHT22;8661;45.700;4.880;2023-05-07T06:29:00;21.80;99.90
17092;DHT22;8661;45.700;4.880;2023-05-07T06:31:30;22.10;99.90
17092;DHT22;8661;45.700;4.880;2023-05-07T06:33:59;21.80;99.70
17092;DHT22;8661;45.700;4.880;2023-05-07T06:36:27;21.60;99.80
17092;DHT22;8661;45.700;4.880;2023-05-07T06:38:54;21.50;99.60
17092;DHT22;8661;45.700;4.880;2023-05-07T06:41:21;21.30;99.60
17092;DHT22;8661;45.700;4.880;2023-05-07T06:43:48;21.10;99.80
17092;DHT22;8661;45.700;4.880;2023-05-07T06:46:16;21.00;99.90
17092;DHT22;8661;45.700;4.880;2023-05-07T06:48:43;20.80;99.90
17092;DHT22;8661;45.700;4.880;2023-05-07T06:51:11;20.70;99.90
17092;DHT22;8661;45.700;4.880;2023-05-07T06:53:38;20.70;99.90
17092;DHT22;8661;45.700;4.880;2023-05-07T06:56:05;20.60;99.90
17092;DHT22;8661;45.700;4.880;2023-05-07T06:58:32;20.50;99.90
17092;DHT22;8661;45.700;4.880;2023-05-07T07:00:59;20.30;99.90
17092;DHT22;8661;45.700;4.880;2023-05-07T07:03:26;20.20;99.90
17092;DHT22;8661;45.700;4.880;2023-05-07T07:05:53;20.10;99.90
17092;DHT22;8661;45.700;4.880;2023-05-07T07:08:22;20.10;99.90
17092;DHT22;8661;45.700;4.880;2023-05-07T07:10:49;20.00;99.90
17092;DHT22;8661;45.700;4.880;2023-05-07T07:13:16;20.00;99.90
17092;DHT22;8661;45.700;4.880;2023-05-07T07:15:43;20.10;99.90
17092;DHT22;8661;45.700;4.880;2023-05-07T07:18:11;20.00;99.90
17092;DHT22;8661;45.700;4.880;2023-05-07T07:20:37;20.00;99.90
17092;DHT22;8661;45.700;4.880;2023-05-07T07:23:04;19.90;99.90
17092;DHT22;8661;45.700;4.880;2023-05-07T07:25:32;19.90;99.90
17092;DHT22;8661;45.700;4.880;2023-05-07T07:27:59;19.80;99.90
17092;DHT22;8661;45.700;4.880;2023-05-07T07:30:26;19.80;99.90
17092;DHT22;8661;45.700;4.880;2023-05-07T07:32:53;19.80;99.90
17092;DHT22;8661;45.700;4.880;2023-05-07T07:35:20;19.70;99.90
17092;DHT22;8661;45.700;4.880;2023-05-07T07:37:48;19.70;99.90
17092;DHT22;8661;45.700;4.880;2023-05-07T07:40:16;19.70;99.90
17092;DHT22;8661;45.700;4.880;2023-05-07T07:42:44;19.70;99.90
17092;DHT22;8661;45.700;4.880;2023-05-07T07:45:11;19.70;99.90
17092;DHT22;8661;45.700;4.880;2023-05-07T07:47:38;19.70;99.90
17092;DHT22;8661;45.700;4.880;2023-05-07T07:50:06;19.60;99.90
17092;DHT22;8661;45.700;4.880;2023-05-07T07:52:33;19.60;99.90
17092;DHT22;8661;45.700;4.880;2023-05-07T07:55:00;19.60;99.90
17092;DHT22;8661;45.700;4.880;2023-05-07T07:57:27;19.60;99.90
17092;DHT22;8661;45.700;4.880;2023-05-07T07:59:56;19.60;99.90
17092;DHT22;8661;45.700;4.880;2023-05-07T08:02:23;19.70;99.90
17092;DHT22;8661;45.700;4.880;2023-05-07T08:04:50;19.70;99.90
17092;DHT22;8661;45.700;4.880;2023-05-07T08:07:16;19.60;99.90
17092;DHT22;8661;45.700;4.880;2023-05-07T08:09:46;19.50;99.90
17092;DHT22;8661;45.700;4.880;2023-05-07T08:12:13;19.50;99.90
17092;DHT22;8661;45.700;4.880;2023-05-07T08:14:40;19.40;99.90
17092;DHT22;8661;45.700;4.880;2023-05-07T08:17:09;19.30;99.90
17092;DHT22;8661;45.700;4.880;2023-05-07T08:19:36;19.20;99.90
17092;DHT22;8661;45.700;4.880;2023-05-07T08:22:03;19.10;99.90
17092;DHT22;8661;45.700;4.880;2023-05-07T08:24:30;19.10;99.90
17092;DHT22;8661;45.700;4.880;2023-05-07T08:26:57;19.20;99.90
17092;DHT22;8661;45.700;4.880;2023-05-07T08:29:23;19.20;99.90
17092;DHT22;8661;45.700;4.880;2023-05-07T08:31:50;19.20;99.90
17092;DHT22;8661;45.700;4.880;2023-05-07T08:34:19;19.10;99.90
17092;DHT22;8661;45.700;4.880;2023-05-07T08:36:46;19.10;99.90
17092;DHT22;8661;45.700;4.880;2023-05-07T08:39:14;19.10;99.90
17092;DHT22;8661;45.700;4.880;2023-05-07T08:41:43;19.00;99.90
17092;DHT22;8661;45.700;4.880;2023-05-07T08:44:12;19.00;99.90
17092;DHT22;8661;45.700;4.880;2023-05-07T08:46:41;19.00;99.90
17092;DHT22;8661;45.700;4.880;2023-05-07T08:49:09;19.00;99.90
17092;DHT22;8661;45.700;4.880;2023-05-07T08:51:37;19.00;99.90
17092;DHT22;8661;45.700;4.880;2023-05-07T08:54:04;19.00;99.90
17092;DHT22;8661;45.700;4.880;2023-05-07T08:56:32;18.90;99.90
17092;DHT22;8661;45.700;4.880;2023-05-07T08:58:59;18.90;99.90
17092;DHT22;8661;45.700;4.880;2023-05-07T09:01:26;18.80;99.90
17092;DHT22;8661;45.700;4.880;2023-05-07T09:03:53;18.80;99.90
17092;DHT22;8661;45.700;4.880;2023-05-07T09:06:20;18.80;99.90
17092;DHT22;8661;45.700;4.880;2023-05-07T09:08:52;18.80;99.90
17092;DHT22;8661;45.700;4.880;2023-05-07T09:11:20;18.70;99.90
17092;DHT22;8661;45.700;4.880;2023-05-07T09:13:48;18.70;99.90
17092;DHT22;8661;45.700;4.880;2023-05-07T09:16:15;18.60;99.90
17092;DHT22;8661;45.700;4.880;2023-05-07T09:18:43;18.60;99.90
17092;DHT22;8661;45.700;4.880;2023-05-07T09:21:10;18.50;99.90
17092;DHT22;8661;45.700;4.880;2023-05-07T09:23:38;18.40;99.90
17092;DHT22;8661;45.700;4.880;2023-05-07T09:26:06;18.30;99.90
17092;DHT22;8661;45.700;4.880;2023-05-07T09:28:38;18.20;99.90
17092;DHT22;8661;45.700;4.880;2023-05-07T09:31:09;18.20;99.90
17092;DHT22;8661;45.700;4.880;2023-05-07T09:33:36;18.10;99.90
17092;DHT22;8661;45.700;4.880;2023-05-07T09:36:03;18.00;99.90
17092;DHT22;8661;45.700;4.880;2023-05-07T09:38:30;17.90;99.90
17092;DHT22;8661;45.700;4.880;2023-05-07T09:41:10;17.90;99.90
17092;DHT22;8661;45.700;4.880;2023-05-07T09:43:38;17.90;99.90
17092;DHT22;8661;45.700;4.880;2023-05-07T09:46:11;17.90;99.90
17092;DHT22;8661;45.700;4.880;2023-05-07T09:48:39;18.00;99.90
17092;DHT22;8661;45.700;4.880;2023-05-07T09:51:18;18.00;99.90
17092;DHT22;8661;45.700;4.880;2023-05-07T09:53:48;18.00;99.90
17092;DHT22;8661;45.700;4.880;2023-05-07T09:56:18;18.10;99.90
17092;DHT22;8661;45.700;4.880;2023-05-07T09:58:46;18.10;99.90
17092;DHT22;8661;45.700;4.880;2023-05-07T10:01:13;18.10;99.90
17092;DHT22;8661;45.700;4.880;2023-05-07T10:03:43;18.20;99.90
17092;DHT22;8661;45.700;4.880;2023-05-07T10:06:10;18.20;99.90
17092;DHT22;8661;45.700;4.880;2023-05-07T10:08:40;18.20;99.90
17092;DHT22;8661;45.700;4.880;2023-05-07T10:11:09;18.20;99.90
17092;DHT22;8661;45.700;4.880;2023-05-07T10:13:37;18.10;99.90
17092;DHT22;8661;45.700;4.880;2023-05-07T10:16:05;18.00;99.90
17092;DHT22;8661;45.700;4.880;2023-05-07T10:18:33;18.00;99.90
17092;DHT22;8661;45.700;4.880;2023-05-07T10:21:04;18.00;99.90
17092;DHT22;8661;45.700;4.880;2023-05-07T10:23:33;18.10;99.90
17092;DHT22;8661;45.700;4.880;2023-05-07T10:26:03;18.10;99.90
17092;DHT22;8661;45.700;4.880;2023-05-07T10:28:40;18.10;99.90
17092;DHT22;8661;45.700;4.880;2023-05-07T10:31:19;18.00;99.90
17092;DHT22;8661;45.700;4.880;2023-05-07T10:33:51;17.90;99.90
17092;DHT22;8661;45.700;4.880;2023-05-07T10:36:19;17.90;99.90
17092;DHT22;8661;45.700;4.880;2023-05-07T10:38:46;17.90;99.90
17092;DHT22;8661;45.700;4.880;2023-05-07T10:41:13;17.90;99.90
17092;DHT22;8661;45.700;4.880;2023-05-07T10:43:45;17.90;99.90
17092;DHT22;8661;45.700;4.880;2023-05-07T10:46:15;17.90;99.90
17092;DHT22;8661;45.700;4.880;2023-05-07T10:49:08;17.80;99.90
17092;DHT22;8661;45.700;4.880;2023-05-07T10:51:37;17.80;99.90
17092;DHT22;8661;45.700;4.880;2023-05-07T10:54:21;17.70;99.90
17092;DHT22;8661;45.700;4.880;2023-05-07T10:56:49;17.70;99.90
17092;DHT22;8661;45.700;4.880;2023-05-07T10:59:38;17.60;99.90
17092;DHT22;8661;45.700;4.880;2023-05-07T11:02:09;17.60;99.90
17092;DHT22;8661;45.700;4.880;2023-05-07T11:04:39;17.60;99.90
17092;DHT22;8661;45.700;4.880;2023-05-07T11:07:26;17.60;99.90
17092;DHT22;8661;45.700;4.880;2023-05-07T11:09:57;17.60;99.90
17092;DHT22;8661;45.700;4.880;2023-05-07T11:15:37;17.60;99.90
17092;DHT22;8661;45.700;4.880;2023-05-07T11:18:06;17.60;99.90
17092;DHT22;8661;45.700;4.880;2023-05-07T11:20:54;17.70;99.90
17092;DHT22;8661;45.700;4.880;2023-05-07T11:23:55;17.70;99.90
17092;DHT22;8661;45.700;4.880;2023-05-07T11:26:24;17.70;99.90
17092;DHT22;8661;45.700;4.880;2023-05-07T11:28:52;17.70;99.90
17092;DHT22;8661;45.700;4.880;2023-05-07T11:31:24;17.80;99.90
17092;DHT22;8661;45.700;4.880;2023-05-07T11:33:54;17.80;99.90
17092;DHT22;8661;45.700;4.880;2023-05-07T11:36:23;17.90;99.90
17092;DHT22;8661;45.700;4.880;2023-05-07T11:38:50;17.90;99.90
17092;DHT22;8661;45.700;4.880;2023-05-07T11:41:17;17.80;99.90
17092;DHT22;8661;45.700;4.880;2023-05-07T11:43:58;17.80;99.90
17092;DHT22;8661;45.700;4.880;2023-05-07T11:46:28;17.90;99.90
17092;DHT22;8661;45.700;4.880;2023-05-07T11:48:56;18.00;99.90
17092;DHT22;8661;45.700;4.880;2023-05-07T11:51:24;18.10;99.90
17092;DHT22;8661;45.700;4.880;2023-05-07T11:53:55;18.10;99.90
17092;DHT22;8661;45.700;4.880;2023-05-07T11:56:22;18.20;99.90
17092;DHT22;8661;45.700;4.880;2023-05-07T11:58:49;18.20;99.90
17092;DHT22;8661;45.700;4.880;2023-05-07T12:01:17;18.30;99.90
17092;DHT22;8661;45.700;4.880;2023-05-07T12:03:45;18.20;99.90
17092;DHT22;8661;45.700;4.880;2023-05-07T12:06:15;18.10;99.90
17092;DHT22;8661;45.700;4.880;2023-05-07T12:08:43;18.30;99.90
17092;DHT22;8661;45.700;4.880;2023-05-07T12:11:14;18.40;99.90
17092;DHT22;8661;45.700;4.880;2023-05-07T12:13:41;18.40;99.90
17092;DHT22;8661;45.700;4.880;2023-05-07T12:16:09;18.30;99.90
17092;DHT22;8661;45.700;4.880;2023-05-07T12:18:36;18.40;99.90
17092;DHT22;8661;45.700;4.880;2023-05-07T12:21:04;18.60;99.90
17092;DHT22;8661;45.700;4.880;2023-05-07T12:23:34;18.60;99.90
17092;DHT22;8661;45.700;4.880;2023-05-07T12:26:02;18.60;99.90
17092;DHT22;8661;45.700;4.880;2023-05-07T12:28:31;18.60;99.90
17092;DHT22;8661;45.700;4.880;2023-05-07T12:31:02;18.70;99.90
17092;DHT22;8661;45.700;4.880;2023-05-07T12:33:29;18.80;99.90
17092;DHT22;8661;45.700;4.880;2023-05-07T12:35:57;18.90;99.90
17092;DHT22;8661;45.700;4.880;2023-05-07T12:38:24;18.90;99.90
17092;DHT22;8661;45.700;4.880;2023-05-07T12:40:54;18.80;99.90
17092;DHT22;8661;45.700;4.880;2023-05-07T12:43:23;18.70;99.90
17092;DHT22;8661;45.700;4.880;2023-05-07T12:45:52;18.60;99.90
17092;DHT22;8661;45.700;4.880;2023-05-07T12:48:20;18.70;99.90
17092;DHT22;8661;45.700;4.880;2023-05-07T12:50:49;18.80;99.90
17092;DHT22;8661;45.700;4.880;2023-05-07T12:53:16;18.80;99.90
17092;DHT22;8661;45.700;4.880;2023-05-07T12:55:44;18.60;99.90
17092;DHT22;8661;45.700;4.880;2023-05-07T12:58:17;18.50;99.90
17092;DHT22;8661;45.700;4.880;2023-05-07T13:00:46;18.50;99.90
17092;DHT22;8661;45.700;4.880;2023-05-07T13:03:21;18.70;99.90
17092;DHT22;8661;45.700;4.880;2023-05-07T13:05:48;18.90;99.90
17092;DHT22;8661;45.700;4.880;2023-05-07T13:08:24;19.00;99.90
17092;DHT22;8661;45.700;4.880;2023-05-07T13:10:51;19.10;99.90
17092;DHT22;8661;45.700;4.880;2023-05-07T13:13:20;19.30;99.90
17092;DHT22;8661;45.700;4.880;2023-05-07T13:15:47;19.30;99.90
17092;DHT22;8661;45.700;4.880;2023-05-07T13:18:14;19.30;99.90
17092;DHT22;8661;45.700;4.880;2023-05-07T13:20:40;19.30;99.90
17092;DHT22;8661;45.700;4.880;2023-05-07T13:23:07;19.30;99.90
17092;DHT22;8661;45.700;4.880;2023-05-07T13:25:34;19.30;99.90
17092;DHT22;8661;45.700;4.880;2023-05-07T13:28:01;19.10;99.90
17092;DHT22;8661;45.700;4.880;2023-05-07T13:30:31;18.80;99.90
17092;DHT22;8661;45.700;4.880;2023-05-07T13:32:58;18.60;99.90
17092;DHT22;8661;45.700;4.880;2023-05-07T13:35:25;18.40;99.90
17092;DHT22;8661;45.700;4.880;2023-05-07T13:37:52;18.40;99.90
17092;DHT22;8661;45.700;4.880;2023-05-07T13:40:20;18.30;99.90
17092;DHT22;8661;45.700;4.880;2023-05-07T13:42:47;18.00;99.90
17092;DHT22;8661;45.700;4.880;2023-05-07T13:45:14;17.90;99.90
17092;DHT22;8661;45.700;4.880;2023-05-07T13:47:43;17.90;99.90
17092;DHT22;8661;45.700;4.880;2023-05-07T13:50:10;17.90;99.90
17092;DHT22;8661;45.700;4.880;2023-05-07T13:52:40;17.90;99.90
17092;DHT22;8661;45.700;4.880;2023-05-07T13:55:08;17.90;99.90
17092;DHT22;8661;45.700;4.880;2023-05-07T13:57:36;17.80;99.90
17092;DHT22;8661;45.700;4.880;2023-05-07T14:00:04;17.80;99.90
17092;DHT22;8661;45.700;4.880;2023-05-07T14:02:32;17.80;99.90
17092;DHT22;8661;45.700;4.880;2023-05-07T14:05:00;17.90;99.90
17092;DHT22;8661;45.700;4.880;2023-05-07T14:07:27;18.10;99.90
17092;DHT22;8661;45.700;4.880;2023-05-07T14:09:54;18.20;99.90
17092;DHT22;8661;45.700;4.880;2023-05-07T14:12:22;18.40;99.90
17092;DHT22;8661;45.700;4.880;2023-05-07T14:14:49;18.40;99.90
17092;DHT22;8661;45.700;4.880;2023-05-07T14:17:16;18.30;99.90
17092;DHT22;8661;45.700;4.880;2023-05-07T14:19:43;18.10;99.90
17092;DHT22;8661;45.700;4.880;2023-05-07T14:22:13;18.00;99.90
17092;DHT22;8661;45.700;4.880;2023-05-07T14:24:40;18.10;99.90
17092;DHT22;8661;45.700;4.880;2023-05-07T14:27:07;18.20;99.90
17092;DHT22;8661;45.700;4.880;2023-05-07T14:29:34;18.20;99.90
17092;DHT22;8661;45.700;4.880;2023-05-07T14:32:01;18.30;99.90
17092;DHT22;8661;45.700;4.880;2023-05-07T14:34:29;18.50;99.90
17092;DHT22;8661;45.700;4.880;2023-05-07T14:36:56;18.60;99.90
17092;DHT22;8661;45.700;4.880;2023-05-07T14:39:24;18.50;99.90
17092;DHT22;8661;45.700;4.880;2023-05-07T14:41:51;18.40;99.90
17092;DHT22;8661;45.700;4.880;2023-05-07T14:44:20;18.50;99.90
17092;DHT22;8661;45.700;4.880;2023-05-07T14:46:47;18.70;99.90
17092;DHT22;8661;45.700;4.880;2023-05-07T14:49:14;18.90;99.90
17092;DHT22;8661;45.700;4.880;2023-05-07T14:51:43;19.10;99.90
17092;DHT22;8661;45.700;4.880;2023-05-07T14:54:10;19.20;99.90
17092;DHT22;8661;45.700;4.880;2023-05-07T14:56:39;19.40;99.90
17092;DHT22;8661;45.700;4.880;2023-05-07T14:59:06;19.70;99.90
17092;DHT22;8661;45.700;4.880;2023-05-07T15:01:34;19.80;99.90
17092;DHT22;8661;45.700;4.880;2023-05-07T15:04:03;19.90;99.90
17092;DHT22;8661;45.700;4.880;2023-05-07T15:06:30;20.00;99.90
17092;DHT22;8661;45.700;4.880;2023-05-07T15:08:57;20.10;99.90
17092;DHT22;8661;45.700;4.880;2023-05-07T15:11:24;20.10;99.90
17092;DHT22;8661;45.700;4.880;2023-05-07T15:13:52;20.00;99.90
17092;DHT22;8661;45.700;4.880;2023-05-07T15:16:19;19.90;99.90
17092;DHT22;8661;45.700;4.880;2023-05-07T15:18:46;19.90;99.90
17092;DHT22;8661;45.700;4.880;2023-05-07T15:21:13;20.00;99.90
17092;DHT22;8661;45.700;4.880;2023-05-07T15:23:40;20.10;99.90
17092;DHT22;8661;45.700;4.880;2023-05-07T15:26:09;20.00;99.90
17092;DHT22;8661;45.700;4.880;2023-05-07T15:28:36;20.10;99.90
17092;DHT22;8661;45.700;4.880;2023-05-07T15:31:05;20.10;99.90
17092;DHT22;8661;45.700;4.880;2023-05-07T15:33:32;20.20;99.90
17092;DHT22;8661;45.700;4.880;2023-05-07T15:35:59;20.30;99.90
17092;DHT22;8661;45.700;4.880;2023-05-07T15:38:26;20.30;99.90
17092;DHT22;8661;45.700;4.880;2023-05-07T15:40:53;20.30;99.90
17092;DHT22;8661;45.700;4.880;2023-05-07T15:43:20;20.20;99.90
17092;DHT22;8661;45.700;4.880;2023-05-07T15:45:47;20.20;99.90
17092;DHT22;8661;45.700;4.880;2023-05-07T15:48:15;20.10;99.90
17092;DHT22;8661;45.700;4.880;2023-05-07T15:50:42;20.10;99.90
17092;DHT22;8661;45.700;4.880;2023-05-07T15:53:09;20.00;99.90